Time;durP1;ratioP1;P1;durP2;ratioP2;P2;SDS_P1;SDS_P2;PMS_P1;PMS_P2;Temp;Humidity;BMP_temperature;BMP_pressure;BME280_temperature;BME280_humidity;BME280_pressure;Samples;Min_cycle;Max_cycle;Signal;HPM_P1;HPM_P2
2021/10/22 06:09:43;;;;;;;21.87;15.68;;;;;;;9.58;99.76;99749.03;1684575;80;21191;31
2021/10/22 06:33:54;;;;;;;23.80;15.85;;;;;;;10.17;98.47;99791.83;1593260;84;21245;-35
2021/10/22 06:36:24;;;;;;;22.95;15.35;;;;;;;10.34;98.18;99793.48;1560616;90;21764;-35
2021/10/22 06:38:53;;;;;;;20.48;14.28;;;;;;;10.47;98.05;99796.88;1562452;90;21095;-36
2021/10/22 06:41:26;;;;;;;24.55;16.57;;;;;;;10.60;97.29;99797.64;1539472;91;21579;-40
2021/10/22 06:44:06;;;;;;;25.20;15.15;;;;;;;10.72;97.08;99797.98;1575787;89;21120;-40
2021/10/22 06:46:38;;;;;;;21.45;14.60;;;;;;;10.81;96.62;99801.84;1555302;90;21246;-44
2021/10/22 06:49:12;;;;;;;25.40;14.65;;;;;;;10.91;96.40;99805.67;1556455;89;21133;-35
2021/10/22 06:52:14;;;;;;;18.52;13.05;;;;;;;11.00;96.11;99797.30;1585160;84;21876;-39
2021/10/22 06:55:22;;;;;;;21.25;13.38;;;;;;;11.07;93.54;99798.96;1627413;86;21911;-35
2021/10/22 06:58:12;;;;;;;18.95;11.68;;;;;;;11.16;91.51;99794.95;1607033;84;21581;-35
2021/10/22 07:01:04;;;;;;;17.57;12.15;;;;;;;11.27;90.93;99798.78;1660286;82;21147;-41
2021/10/22 07:03:49;;;;;;;17.70;12.82;;;;;;;11.35;89.32;99795.17;1661921;83;21526;-39
2021/10/22 07:13:03;;;;;;;17.05;12.03;;;;;;;11.64;87.52;99801.83;1725082;79;21132;-34
2021/10/22 07:23:08;;;;;;;23.98;12.90;;;;;;;12.03;85.04;99809.67;1745954;79;21174;-37
2021/10/22 07:46:33;;;;;;;14.33;11.53;;;;;;;13.03;81.43;99797.16;1662500;80;21172;31
2021/10/22 07:49:09;;;;;;;22.22;11.97;;;;;;;13.25;80.00;99784.53;1709777;82;21106;-34
2021/10/22 07:51:42;;;;;;;22.20;11.63;;;;;;;13.41;79.40;99782.03;1683666;82;21092;-37
2021/10/22 07:57:32;;;;;;;17.12;12.00;;;;;;;13.69;78.30;99788.06;1703405;82;22484;-37
2021/10/22 08:03:11;;;;;;;23.05;13.38;;;;;;;13.97;76.57;99781.28;1635038;84;21067;-37
2021/10/22 08:05:52;;;;;;;17.48;11.20;;;;;;;14.11;75.73;99778.37;1633695;84;21531;-37
2021/10/22 08:08:21;;;;;;;;;;;;;;;14.24;74.39;99781.13;1716293;82;21121;-45
2021/10/22 08:10:58;;;;;;;19.17;10.78;;;;;;;14.35;74.17;99778.25;1694078;82;20517;-38
2021/10/22 08:13:33;;;;;;;19.57;13.40;;;;;;;14.46;73.91;99792.02;1652189;84;21006;-40
2021/10/22 08:16:03;;;;;;;21.05;12.05;;;;;;;14.59;73.52;99789.53;1702938;81;21673;-41
2021/10/22 08:18:29;;;;;;;30.25;15.03;;;;;;;14.75;72.62;99788.72;1670060;83;21143;-40
2021/10/22 08:21:01;;;;;;;39.03;20.72;;;;;;;14.92;72.70;99775.12;1686133;82;21089;-41
2021/10/22 08:23:29;;;;;;;23.20;13.93;;;;;;;15.07;72.08;99784.38;1693386;82;20992;-41
2021/10/22 08:26:06;;;;;;;17.80;10.88;;;;;;;15.22;70.60;99781.34;1691348;82;21239;-41
2021/10/22 08:29:18;;;;;;;12.93;9.15;;;;;;;15.33;69.93;99781.05;1623614;84;21999;-36
2021/10/22 08:34:45;;;;;;;12.28;8.85;;;;;;;15.54;68.25;99788.37;1679827;83;21612;-34
2021/10/22 08:38:14;;;;;;;10.70;7.72;;;;;;;15.65;68.24;99793.34;1689037;83;21256;-36
2021/10/22 08:41:26;;;;;;;16.95;8.60;;;;;;;15.85;66.46;99787.05;1647834;84;21402;-41
2021/10/22 08:44:12;;;;;;;14.73;9.78;;;;;;;16.04;65.83;99794.41;1655591;84;21174;-36
2021/10/22 08:46:52;;;;;;;10.78;8.25;;;;;;;16.16;64.90;99789.63;1631554;85;21070;-41
2021/10/22 08:49:33;;;;;;;14.13;8.30;;;;;;;16.29;64.29;99788.78;1653400;83;21162;-40
2021/10/22 08:52:10;;;;;;;12.20;7.25;;;;;;;16.40;63.61;99786.66;1662653;82;21181;-41
2021/10/22 08:57:33;;;;;;;17.80;8.78;;;;;;;16.56;61.65;99798.92;1664029;84;21615;-37
2021/10/22 09:03:10;;;;;;;15.55;8.50;;;;;;;16.79;61.48;99793.39;1651842;83;20124;-39
2021/10/22 09:06:15;;;;;;;14.63;7.15;;;;;;;16.96;61.62;99792.36;1642680;85;21530;-35
2021/10/22 09:08:45;;;;;;;12.78;6.62;;;;;;;17.14;60.05;99796.15;1604163;85;21112;-39
2021/10/22 09:11:27;;;;;;;14.25;7.10;;;;;;;17.34;58.03;99795.47;1616967;87;21088;-36
2021/10/22 09:14:14;;;;;;;10.50;6.97;;;;;;;17.46;56.79;99789.27;1608182;86;21540;-38
2021/10/22 09:16:50;;;;;;;13.10;7.50;;;;;;;17.60;56.63;99784.80;1601311;86;21161;-36
2021/10/22 09:19:36;;;;;;;14.13;7.17;;;;;;;17.77;56.06;99789.50;1629877;85;21399;-39
2021/10/22 09:22:30;;;;;;;13.03;7.53;;;;;;;17.94;54.73;99788.40;1616150;86;21139;-40
2021/10/22 09:25:48;;;;;;;10.23;6.57;;;;;;;18.18;54.12;99783.94;1606469;87;21101;-39
2021/10/22 09:28:32;;;;;;;11.83;6.85;;;;;;;18.18;54.12;99783.94;1619990;86;21097;-35
2021/10/22 09:31:02;;;;;;;11.70;6.30;;;;;;;18.35;53.92;99785.92;1630243;86;21128;-40
2021/10/22 09:36:41;;;;;;;10.05;6.62;;;;;;;18.69;52.57;99769.55;1652981;84;21123;-40
2021/10/22 09:39:19;;;;;;;11.95;6.22;;;;;;;18.88;51.43;99773.15;1641229;83;21052;-36
2021/10/22 09:41:56;;;;;;;11.65;6.67;;;;;;;18.95;50.38;99776.39;1654896;84;21500;-36
2021/10/22 09:44:34;;;;;;;8.85;5.85;;;;;;;18.94;49.78;99777.33;1640828;84;21043;-36
2021/10/22 09:47:10;;;;;;;14.43;6.53;;;;;;;18.94;49.43;99773.81;1647524;85;21132;-40
2021/10/22 09:49:40;;;;;;;12.10;5.95;;;;;;;19.02;50.85;99769.93;1670983;84;21115;-35
2021/10/22 09:52:32;;;;;;;11.55;6.25;;;;;;;19.25;49.27;99767.61;1674981;83;21140;-36
2021/10/22 09:55:18;;;;;;;10.95;6.35;;;;;;;19.47;48.20;99758.20;1594948;86;21157;-35
2021/10/22 09:58:27;;;;;;;7.37;5.85;;;;;;;19.66;47.29;99753.84;1652913;84;21144;-40
2021/10/22 10:01:12;;;;;;;7.12;4.20;;;;;;;19.89;45.54;99763.87;1647708;85;21776;-37
2021/10/22 10:03:42;;;;;;;5.03;3.90;;;;;;;20.21;43.89;99762.33;1621575;85;21826;-36
2021/10/22 10:06:11;;;;;;;13.08;5.85;;;;;;;20.63;41.74;99758.53;1605735;87;21201;-41
2021/10/22 10:09:08;;;;;;;9.40;3.95;;;;;;;21.06;42.02;99762.55;1672783;84;21086;-41
2021/10/22 10:11:40;;;;;;;4.90;3.02;;;;;;;21.60;39.16;99763.75;1660457;84;21570;-41
2021/10/22 10:14:16;;;;;;;10.78;5.05;;;;;;;22.02;37.17;99753.88;1600997;86;21048;-37
2021/10/22 10:21:47;;;;;;;8.95;3.52;;;;;;;23.00;34.46;99762.95;1661250;81;21501;-37
2021/10/22 10:24:32;;;;;;;14.60;5.72;;;;;;;22.98;35.08;99763.53;1727088;80;21125;-41
2021/10/22 10:27:35;;;;;;;12.65;4.15;;;;;;;23.04;35.75;99769.83;1703458;80;21044;-37
2021/10/22 10:30:08;;;;;;;5.67;3.65;;;;;;;23.10;34.19;99785.47;1719354;80;21119;-41
2021/10/22 10:32:35;;;;;;;21.77;6.15;;;;;;;23.30;34.37;99779.78;1715613;81;21677;-37
2021/10/22 10:35:25;;;;;;;7.78;4.75;;;;;;;23.56;34.00;99771.53;1682910;81;21029;-36
2021/10/22 10:38:17;;;;;;;8.63;4.10;;;;;;;23.76;32.87;99771.64;1739038;80;21119;-36
2021/10/22 10:40:54;;;;;;;11.88;4.12;;;;;;;23.86;33.24;99763.92;1704961;80;21195;-36
2021/10/22 10:43:27;;;;;;;7.33;4.75;;;;;;;24.10;32.72;99754.33;1714472;81;21121;-36
2021/10/22 10:46:10;;;;;;;7.97;3.50;;;;;;;24.36;32.86;99747.34;1735426;80;21072;-36
2021/10/22 10:49:18;;;;;;;10.50;3.75;;;;;;;24.66;31.47;99756.48;1738870;80;21037;-36
2021/10/22 10:52:47;;;;;;;12.98;5.08;;;;;;;25.03;31.03;99749.13;1732296;80;21058;-40
2021/10/22 10:59:51;;;;;;;5.85;3.95;;;;;;;25.75;28.73;99736.98;1637703;84;21255;-36
2021/10/22 11:24:35;;;;;;;9.23;2.75;;;;;;;24.97;28.25;99749.55;1619425;84;21312;-39
2021/10/22 11:57:50;;;;;;;3.95;2.70;;;;;;;23.70;28.88;99752.48;1647629;83;21124;-36
2021/10/22 12:15:33;;;;;;;5.67;3.12;;;;;;;22.81;29.83;99751.16;1586160;88;22203;-36
2021/10/22 12:29:58;;;;;;;6.58;3.58;;;;;;;22.36;31.33;99742.69;1677925;83;21237;-36
2021/10/22 12:32:43;;;;;;;8.70;3.00;;;;;;;22.03;32.03;99761.81;1661597;82;21119;-40
2021/10/22 12:39:27;;;;;;;6.97;3.95;;;;;;;21.68;32.72;99743.75;1685591;80;21188;-37
2021/10/22 12:41:58;;;;;;;5.97;3.83;;;;;;;21.59;33.16;99745.59;1680363;83;21164;-39
2021/10/22 12:44:31;;;;;;;10.05;4.35;;;;;;;21.64;33.41;99745.36;1699032;83;21074;-40
2021/10/22 12:47:39;;;;;;;9.40;4.08;;;;;;;21.81;33.49;99740.45;1700327;83;21081;-36
2021/10/22 12:54:09;;;;;;;6.90;4.45;;;;;;;21.75;33.83;99752.28;1659081;83;21648;-39
2021/10/22 12:56:39;;;;;;;7.42;4.12;;;;;;;21.40;34.51;99756.38;1634385;84;21145;-40
2021/10/22 12:59:09;;;;;;;11.65;6.35;;;;;;;21.20;34.33;99762.69;1570915;86;21131;-36
2021/10/22 13:01:41;;;;;;;12.88;6.37;;;;;;;20.95;34.93;99759.59;1601101;86;21160;-36
2021/10/22 13:04:13;;;;;;;6.50;4.47;;;;;;;20.67;35.43;99760.97;1643486;85;21123;-40
2021/10/22 13:09:38;;;;;;;6.55;3.70;;;;;;;20.31;36.68;99772.91;1663161;84;21575;-40
2021/10/22 13:20:35;;;;;;;4.80;3.80;;;;;;;19.80;38.07;99776.22;1644099;85;21065;-38
2021/10/22 13:23:00;;;;;;;12.25;4.40;;;;;;;19.76;38.16;99774.63;1658564;83;21087;-37
2021/10/22 13:25:27;;;;;;;7.50;4.15;;;;;;;19.77;38.09;99770.61;1682104;80;21868;-38
2021/10/22 13:28:01;;;;;;;7.47;3.87;;;;;;;19.81;37.95;99760.69;1716102;82;21059;-36
2021/10/22 13:30:40;;;;;;;5.40;3.60;;;;;;;19.79;38.17;99768.73;1672100;82;21064;-40
2021/10/22 13:33:04;;;;;;;5.73;3.63;;;;;;;19.76;38.40;99770.18;1736815;80;21107;-41
2021/10/22 13:36:15;;;;;;;8.23;3.80;;;;;;;19.77;38.60;99774.59;1748912;80;21279;-36
2021/10/22 13:45:44;;;;;;;18.70;12.30;;;;;;;19.41;39.85;99773.93;1706064;82;21080;-35
2021/10/22 13:48:12;;;;;;;21.27;10.30;;;;;;;19.22;40.22;99767.73;1712259;82;21555;-35
2021/10/22 13:50:40;;;;;;;12.50;7.22;;;;;;;19.10;40.61;99762.96;1686957;82;21108;-39
2021/10/22 13:53:10;;;;;;;24.02;11.75;;;;;;;19.00;40.82;99764.28;1681158;83;21061;-35
2021/10/22 13:55:42;;;;;;;15.88;8.50;;;;;;;18.91;41.12;99762.89;1661921;84;21611;-39
2021/10/22 13:58:13;;;;;;;29.25;17.02;;;;;;;18.82;41.43;99772.08;1627216;84;21436;-36
2021/10/22 14:00:42;;;;;;;34.63;10.82;;;;;;;18.72;41.79;99768.08;1690566;82;21148;-40
2021/10/22 14:03:14;;;;;;;22.77;8.88;;;;;;;18.62;42.31;99769.38;1659985;85;21153;-36
2021/10/22 14:05:53;;;;;;;27.15;12.65;;;;;;;18.52;42.73;99770.67;1654271;84;21103;-35
2021/10/22 14:08:25;;;;;;;39.13;22.22;;;;;;;18.42;42.91;99770.18;1682001;83;21128;-40
2021/10/22 14:10:54;;;;;;;46.45;23.95;;;;;;;18.32;43.32;99772.79;1630150;84;21104;-40
2021/10/22 14:13:36;;;;;;;22.27;10.03;;;;;;;18.24;43.69;99769.13;1666583;83;21627;-40
2021/10/22 14:29:57;;;;;;;12.78;6.45;;;;;;;17.96;44.62;99777.75;1637998;84;21052;-36
2021/10/22 14:32:27;;;;;;;22.80;10.10;;;;;;;17.90;44.73;99763.42;1677512;83;21613;-40
2021/10/22 14:35:01;;;;;;;14.58;9.33;;;;;;;17.83;44.88;99773.39;1677492;83;21432;-40
2021/10/22 14:37:32;;;;;;;42.45;22.73;;;;;;;17.76;45.06;99775.41;1612271;84;21091;-40
2021/10/22 14:40:08;;;;;;;230.27;112.70;;;;;;;17.67;45.24;99770.41;1716887;82;21650;-40
2021/10/22 14:42:36;;;;;;;243.85;103.07;;;;;;;17.60;45.43;99772.03;1689589;83;21592;-36
2021/10/22 14:45:21;;;;;;;456.00;192.13;;;;;;;17.50;45.68;99767.53;1665069;84;22393;-36
2021/10/22 14:54:25;;;;;;;39.88;21.02;;;;;;;17.11;46.47;99769.84;1686956;81;21064;-36
2021/10/22 15:04:02;;;;;;;40.95;18.55;;;;;;;16.74;47.52;99776.36;1716502;81;20254;-40
2021/10/22 15:06:36;;;;;;;36.53;18.05;;;;;;;16.56;48.39;99775.62;1662029;82;21568;-39
2021/10/22 15:09:04;;;;;;;26.65;13.85;;;;;;;16.39;48.87;99776.16;1721180;82;21525;-40
2021/10/22 15:11:50;;;;;;;22.50;9.88;;;;;;;16.27;49.13;99773.45;1708295;81;21123;-36
2021/10/22 15:14:16;;;;;;;26.60;11.15;;;;;;;16.16;49.42;99778.20;1705399;82;21010;-35
2021/10/22 15:16:44;;;;;;;31.90;13.28;;;;;;;16.04;49.78;99788.67;1683916;82;21151;-35
2021/10/22 15:19:18;;;;;;;108.75;42.65;;;;;;;15.92;50.23;99785.09;1709360;81;21060;-40
2021/10/22 15:21:48;;;;;;;;;;;;;;;15.81;50.35;99791.14;1685563;83;21256;-40
